sensor_id;sensor_type;location;lat;lon;timestamp;P1;durP1;ratioP1;P2;durP2;ratioP2
69837;SDS011;57135;51.992;4.476;2023-06-14T00:00:36;5.48;;;5.48;;
69837;SDS011;57135;51.992;4.476;2023-06-14T00:03:04;5.78;;;5.78;;
69837;SDS011;57135;51.992;4.476;2023-06-14T00:05:29;6.30;;;6.30;;
69837;SDS011;57135;51.992;4.476;2023-06-14T00:07:57;5.64;;;5.64;;
69837;SDS011;57135;51.992;4.476;2023-06-14T00:10:25;5.71;;;5.71;;
69837;SDS011;57135;51.992;4.476;2023-06-14T00:12:55;5.74;;;5.74;;
69837;SDS011;57135;51.992;4.476;2023-06-14T00:15:21;5.97;;;5.97;;
69837;SDS011;57135;51.992;4.476;2023-06-14T00:17:48;5.76;;;5.76;;
69837;SDS011;57135;51.992;4.476;2023-06-14T00:20:14;5.75;;;5.75;;
69837;SDS011;57135;51.992;4.476;2023-06-14T00:22:39;5.91;;;5.91;;
69837;SDS011;57135;51.992;4.476;2023-06-14T00:25:05;5.49;;;5.49;;
69837;SDS011;57135;51.992;4.476;2023-06-14T00:27:31;5.89;;;5.89;;
69837;SDS011;57135;51.992;4.476;2023-06-14T00:29:56;6.04;;;6.03;;
69837;SDS011;57135;51.992;4.476;2023-06-14T00:32:23;6.08;;;6.03;;
69837;SDS011;57135;51.992;4.476;2023-06-14T00:34:51;5.97;;;5.97;;
69837;SDS011;57135;51.992;4.476;2023-06-14T00:37:16;6.16;;;6.16;;
69837;SDS011;57135;51.992;4.476;2023-06-14T00:39:42;6.45;;;6.42;;
69837;SDS011;57135;51.992;4.476;2023-06-14T00:42:07;6.25;;;6.21;;
69837;SDS011;57135;51.992;4.476;2023-06-14T00:44:33;6.36;;;6.30;;
69837;SDS011;57135;51.992;4.476;2023-06-14T00:46:58;6.00;;;6.00;;
69837;SDS011;57135;51.992;4.476;2023-06-14T00:49:24;6.44;;;6.44;;
69837;SDS011;57135;51.992;4.476;2023-06-14T00:51:49;6.46;;;6.46;;
69837;SDS011;57135;51.992;4.476;2023-06-14T00:54:16;6.39;;;6.39;;
69837;SDS011;57135;51.992;4.476;2023-06-14T00:56:41;6.25;;;6.25;;
69837;SDS011;57135;51.992;4.476;2023-06-14T00:59:09;6.36;;;6.36;;
69837;SDS011;57135;51.992;4.476;2023-06-14T01:01:36;6.36;;;6.36;;
69837;SDS011;57135;51.992;4.476;2023-06-14T01:04:02;6.44;;;6.44;;
69837;SDS011;57135;51.992;4.476;2023-06-14T01:06:33;6.69;;;6.57;;
69837;SDS011;57135;51.992;4.476;2023-06-14T01:09:33;6.41;;;6.35;;
69837;SDS011;57135;51.992;4.476;2023-06-14T01:15:21;7.00;;;7.00;;
69837;SDS011;57135;51.992;4.476;2023-06-14T01:17:50;6.55;;;6.55;;
69837;SDS011;57135;51.992;4.476;2023-06-14T01:20:19;6.96;;;6.93;;
69837;SDS011;57135;51.992;4.476;2023-06-14T01:22:52;6.57;;;6.56;;
69837;SDS011;57135;51.992;4.476;2023-06-14T01:25:19;6.96;;;6.96;;
69837;SDS011;57135;51.992;4.476;2023-06-14T01:27:47;6.39;;;6.39;;
69837;SDS011;57135;51.992;4.476;2023-06-14T01:30:23;6.48;;;6.48;;
69837;SDS011;57135;51.992;4.476;2023-06-14T01:32:53;6.50;;;6.50;;
69837;SDS011;57135;51.992;4.476;2023-06-14T01:35:20;6.75;;;6.75;;
69837;SDS011;57135;51.992;4.476;2023-06-14T01:37:47;6.88;;;6.88;;
69837;SDS011;57135;51.992;4.476;2023-06-14T01:40:14;6.54;;;6.54;;
69837;SDS011;57135;51.992;4.476;2023-06-14T01:42:41;6.48;;;6.48;;
69837;SDS011;57135;51.992;4.476;2023-06-14T01:45:08;6.46;;;6.46;;
69837;SDS011;57135;51.992;4.476;2023-06-14T01:47:35;6.57;;;6.56;;
69837;SDS011;57135;51.992;4.476;2023-06-14T01:50:02;6.88;;;6.88;;
69837;SDS011;57135;51.992;4.476;2023-06-14T01:52:28;6.88;;;6.87;;
69837;SDS011;57135;51.992;4.476;2023-06-14T01:54:54;6.42;;;6.42;;
69837;SDS011;57135;51.992;4.476;2023-06-14T01:57:19;6.49;;;6.49;;
69837;SDS011;57135;51.992;4.476;2023-06-14T01:59:45;6.56;;;6.56;;
69837;SDS011;57135;51.992;4.476;2023-06-14T02:02:14;6.48;;;6.48;;
69837;SDS011;57135;51.992;4.476;2023-06-14T02:04:40;6.74;;;6.74;;
69837;SDS011;57135;51.992;4.476;2023-06-14T02:07:07;6.52;;;6.51;;
69837;SDS011;57135;51.992;4.476;2023-06-14T02:09:33;6.89;;;6.86;;
69837;SDS011;57135;51.992;4.476;2023-06-14T02:11:59;6.47;;;6.47;;
69837;SDS011;57135;51.992;4.476;2023-06-14T02:14:24;6.65;;;6.65;;
69837;SDS011;57135;51.992;4.476;2023-06-14T02:16:50;6.65;;;6.65;;
69837;SDS011;57135;51.992;4.476;2023-06-14T02:19:16;6.65;;;6.65;;
69837;SDS011;57135;51.992;4.476;2023-06-14T02:21:42;6.51;;;6.51;;
69837;SDS011;57135;51.992;4.476;2023-06-14T02:24:09;6.61;;;6.61;;
69837;SDS011;57135;51.992;4.476;2023-06-14T02:26:35;6.55;;;6.55;;
69837;SDS011;57135;51.992;4.476;2023-06-14T02:29:00;6.71;;;6.71;;
69837;SDS011;57135;51.992;4.476;2023-06-14T02:31:26;6.88;;;6.88;;
69837;SDS011;57135;51.992;4.476;2023-06-14T02:33:52;6.68;;;6.68;;
69837;SDS011;57135;51.992;4.476;2023-06-14T02:36:17;6.46;;;6.45;;
69837;SDS011;57135;51.992;4.476;2023-06-14T02:38:43;6.56;;;6.55;;
69837;SDS011;57135;51.992;4.476;2023-06-14T02:41:08;6.38;;;6.38;;
69837;SDS011;57135;51.992;4.476;2023-06-14T02:43:34;6.72;;;6.72;;
69837;SDS011;57135;51.992;4.476;2023-06-14T02:46:00;6.45;;;6.45;;
69837;SDS011;57135;51.992;4.476;2023-06-14T02:48:26;6.40;;;6.40;;
69837;SDS011;57135;51.992;4.476;2023-06-14T02:50:51;6.42;;;6.42;;
69837;SDS011;57135;51.992;4.476;2023-06-14T02:53:17;6.73;;;6.73;;
69837;SDS011;57135;51.992;4.476;2023-06-14T02:55:42;6.33;;;6.33;;
69837;SDS011;57135;51.992;4.476;2023-06-14T02:58:09;6.40;;;6.40;;
69837;SDS011;57135;51.992;4.476;2023-06-14T03:00:35;6.49;;;6.49;;
69837;SDS011;57135;51.992;4.476;2023-06-14T03:03:01;6.07;;;6.07;;
69837;SDS011;57135;51.992;4.476;2023-06-14T03:05:27;6.57;;;6.57;;
69837;SDS011;57135;51.992;4.476;2023-06-14T03:07:53;6.67;;;6.67;;
69837;SDS011;57135;51.992;4.476;2023-06-14T03:10:19;6.12;;;6.11;;
69837;SDS011;57135;51.992;4.476;2023-06-14T03:12:45;6.19;;;6.19;;
69837;SDS011;57135;51.992;4.476;2023-06-14T03:15:12;6.32;;;6.32;;
69837;SDS011;57135;51.992;4.476;2023-06-14T03:17:38;6.78;;;6.78;;
69837;SDS011;57135;51.992;4.476;2023-06-14T03:20:04;6.57;;;6.57;;
69837;SDS011;57135;51.992;4.476;2023-06-14T03:22:30;6.24;;;6.24;;
69837;SDS011;57135;51.992;4.476;2023-06-14T03:24:58;6.25;;;6.25;;
69837;SDS011;57135;51.992;4.476;2023-06-14T03:27:24;6.47;;;6.43;;
69837;SDS011;57135;51.992;4.476;2023-06-14T03:29:50;6.48;;;6.47;;
69837;SDS011;57135;51.992;4.476;2023-06-14T03:32:16;6.73;;;6.71;;
69837;SDS011;57135;51.992;4.476;2023-06-14T03:34:41;6.57;;;6.55;;
69837;SDS011;57135;51.992;4.476;2023-06-14T03:37:07;6.27;;;6.26;;
69837;SDS011;57135;51.992;4.476;2023-06-14T03:39:33;6.27;;;6.27;;
69837;SDS011;57135;51.992;4.476;2023-06-14T03:41:58;6.31;;;6.31;;
69837;SDS011;57135;51.992;4.476;2023-06-14T03:44:24;6.17;;;6.17;;
69837;SDS011;57135;51.992;4.476;2023-06-14T03:46:51;6.20;;;6.20;;
69837;SDS011;57135;51.992;4.476;2023-06-14T03:49:20;6.03;;;6.03;;
69837;SDS011;57135;51.992;4.476;2023-06-14T03:51:46;6.65;;;6.60;;
69837;SDS011;57135;51.992;4.476;2023-06-14T03:54:16;6.13;;;6.10;;
69837;SDS011;57135;51.992;4.476;2023-06-14T03:56:41;6.16;;;6.13;;
69837;SDS011;57135;51.992;4.476;2023-06-14T03:59:06;6.20;;;6.20;;
69837;SDS011;57135;51.992;4.476;2023-06-14T04:01:32;6.36;;;6.36;;
69837;SDS011;57135;51.992;4.476;2023-06-14T04:03:58;6.46;;;6.46;;
69837;SDS011;57135;51.992;4.476;2023-06-14T04:06:24;6.45;;;6.45;;
69837;SDS011;57135;51.992;4.476;2023-06-14T04:08:56;6.54;;;6.54;;
69837;SDS011;57135;51.992;4.476;2023-06-14T04:11:22;6.35;;;6.35;;
69837;SDS011;57135;51.992;4.476;2023-06-14T04:13:47;5.92;;;5.92;;
69837;SDS011;57135;51.992;4.476;2023-06-14T04:16:13;6.34;;;6.34;;
69837;SDS011;57135;51.992;4.476;2023-06-14T04:18:39;6.35;;;6.35;;
69837;SDS011;57135;51.992;4.476;2023-06-14T04:21:04;6.28;;;6.28;;
69837;SDS011;57135;51.992;4.476;2023-06-14T04:23:31;6.19;;;6.18;;
69837;SDS011;57135;51.992;4.476;2023-06-14T04:25:57;6.36;;;6.36;;
69837;SDS011;57135;51.992;4.476;2023-06-14T04:28:27;6.45;;;6.42;;
69837;SDS011;57135;51.992;4.476;2023-06-14T04:30:53;6.14;;;6.14;;
69837;SDS011;57135;51.992;4.476;2023-06-14T04:33:19;5.93;;;5.93;;
69837;SDS011;57135;51.992;4.476;2023-06-14T04:35:44;6.00;;;6.00;;
69837;SDS011;57135;51.992;4.476;2023-06-14T04:38:12;6.17;;;6.17;;
69837;SDS011;57135;51.992;4.476;2023-06-14T04:40:37;6.25;;;6.25;;
69837;SDS011;57135;51.992;4.476;2023-06-14T04:43:10;6.29;;;6.29;;
69837;SDS011;57135;51.992;4.476;2023-06-14T04:45:38;6.00;;;5.99;;
69837;SDS011;57135;51.992;4.476;2023-06-14T04:48:04;6.11;;;6.10;;
69837;SDS011;57135;51.992;4.476;2023-06-14T04:50:31;6.28;;;6.28;;
69837;SDS011;57135;51.992;4.476;2023-06-14T04:52:58;6.24;;;6.24;;
69837;SDS011;57135;51.992;4.476;2023-06-14T04:55:24;6.24;;;6.24;;
69837;SDS011;57135;51.992;4.476;2023-06-14T04:57:51;6.67;;;6.67;;
69837;SDS011;57135;51.992;4.476;2023-06-14T05:00:19;6.41;;;6.41;;
69837;SDS011;57135;51.992;4.476;2023-06-14T05:02:45;6.09;;;6.08;;
69837;SDS011;57135;51.992;4.476;2023-06-14T05:05:12;6.02;;;6.01;;
69837;SDS011;57135;51.992;4.476;2023-06-14T05:07:37;6.20;;;6.20;;
69837;SDS011;57135;51.992;4.476;2023-06-14T05:10:03;6.38;;;6.35;;
69837;SDS011;57135;51.992;4.476;2023-06-14T05:12:30;6.33;;;6.32;;
69837;SDS011;57135;51.992;4.476;2023-06-14T05:14:55;6.31;;;6.30;;
69837;SDS011;57135;51.992;4.476;2023-06-14T05:17:23;6.38;;;6.38;;
69837;SDS011;57135;51.992;4.476;2023-06-14T05:19:49;6.01;;;6.01;;
69837;SDS011;57135;51.992;4.476;2023-06-14T05:22:15;6.01;;;6.01;;
69837;SDS011;57135;51.992;4.476;2023-06-14T05:24:41;6.22;;;6.22;;
69837;SDS011;57135;51.992;4.476;2023-06-14T05:27:07;6.11;;;6.11;;
69837;SDS011;57135;51.992;4.476;2023-06-14T05:29:33;6.19;;;6.19;;
69837;SDS011;57135;51.992;4.476;2023-06-14T05:31:58;6.13;;;6.12;;
69837;SDS011;57135;51.992;4.476;2023-06-14T05:34:24;6.24;;;6.24;;
69837;SDS011;57135;51.992;4.476;2023-06-14T05:36:49;5.99;;;5.99;;
69837;SDS011;57135;51.992;4.476;2023-06-14T05:39:15;5.89;;;5.89;;
69837;SDS011;57135;51.992;4.476;2023-06-14T05:41:40;5.88;;;5.88;;
69837;SDS011;57135;51.992;4.476;2023-06-14T05:44:06;6.01;;;6.01;;
69837;SDS011;57135;51.992;4.476;2023-06-14T05:46:32;5.83;;;5.83;;
69837;SDS011;57135;51.992;4.476;2023-06-14T05:48:58;5.96;;;5.95;;
69837;SDS011;57135;51.992;4.476;2023-06-14T05:51:23;5.96;;;5.96;;
69837;SDS011;57135;51.992;4.476;2023-06-14T05:53:51;5.81;;;5.81;;
69837;SDS011;57135;51.992;4.476;2023-06-14T05:56:17;5.94;;;5.93;;
69837;SDS011;57135;51.992;4.476;2023-06-14T05:58:43;6.22;;;6.21;;
69837;SDS011;57135;51.992;4.476;2023-06-14T06:01:10;6.00;;;5.95;;
69837;SDS011;57135;51.992;4.476;2023-06-14T06:03:35;5.96;;;5.96;;
69837;SDS011;57135;51.992;4.476;2023-06-14T06:06:01;5.84;;;5.84;;
69837;SDS011;57135;51.992;4.476;2023-06-14T06:08:28;5.99;;;5.99;;
69837;SDS011;57135;51.992;4.476;2023-06-14T06:10:53;6.23;;;6.23;;
69837;SDS011;57135;51.992;4.476;2023-06-14T06:13:19;6.20;;;6.16;;
69837;SDS011;57135;51.992;4.476;2023-06-14T06:15:44;6.12;;;6.11;;
69837;SDS011;57135;51.992;4.476;2023-06-14T06:18:10;6.46;;;6.46;;
69837;SDS011;57135;51.992;4.476;2023-06-14T06:20:35;6.12;;;6.12;;
69837;SDS011;57135;51.992;4.476;2023-06-14T06:23:01;6.02;;;6.02;;
69837;SDS011;57135;51.992;4.476;2023-06-14T06:25:27;5.97;;;5.96;;
69837;SDS011;57135;51.992;4.476;2023-06-14T06:27:53;6.11;;;6.11;;
69837;SDS011;57135;51.992;4.476;2023-06-14T06:30:19;6.07;;;6.07;;
69837;SDS011;57135;51.992;4.476;2023-06-14T06:32:45;5.98;;;5.98;;
69837;SDS011;57135;51.992;4.476;2023-06-14T06:35:11;6.29;;;6.29;;
69837;SDS011;57135;51.992;4.476;2023-06-14T06:37:38;6.04;;;6.04;;
69837;SDS011;57135;51.992;4.476;2023-06-14T06:40:03;6.00;;;6.00;;
69837;SDS011;57135;51.992;4.476;2023-06-14T06:42:31;6.07;;;6.07;;
69837;SDS011;57135;51.992;4.476;2023-06-14T06:44:57;5.95;;;5.95;;
69837;SDS011;57135;51.992;4.476;2023-06-14T06:47:22;5.88;;;5.88;;
69837;SDS011;57135;51.992;4.476;2023-06-14T06:49:48;6.55;;;6.53;;
69837;SDS011;57135;51.992;4.476;2023-06-14T06:52:13;6.69;;;6.69;;
69837;SDS011;57135;51.992;4.476;2023-06-14T06:54:39;6.43;;;6.43;;
69837;SDS011;57135;51.992;4.476;2023-06-14T06:57:05;6.40;;;6.40;;
69837;SDS011;57135;51.992;4.476;2023-06-14T06:59:31;6.25;;;6.25;;
69837;SDS011;57135;51.992;4.476;2023-06-14T07:01:57;6.25;;;6.25;;
69837;SDS011;57135;51.992;4.476;2023-06-14T07:04:23;6.48;;;6.48;;
69837;SDS011;57135;51.992;4.476;2023-06-14T07:06:50;6.05;;;6.05;;
69837;SDS011;57135;51.992;4.476;2023-06-14T07:09:15;6.37;;;6.37;;
69837;SDS011;57135;51.992;4.476;2023-06-14T07:11:42;6.26;;;6.26;;
69837;SDS011;57135;51.992;4.476;2023-06-14T07:14:09;6.33;;;6.33;;
69837;SDS011;57135;51.992;4.476;2023-06-14T07:16:35;6.29;;;6.29;;
69837;SDS011;57135;51.992;4.476;2023-06-14T07:19:01;6.10;;;6.10;;
69837;SDS011;57135;51.992;4.476;2023-06-14T07:21:27;6.39;;;6.39;;
69837;SDS011;57135;51.992;4.476;2023-06-14T07:23:53;6.37;;;6.37;;
69837;SDS011;57135;51.992;4.476;2023-06-14T07:26:20;6.32;;;6.31;;
69837;SDS011;57135;51.992;4.476;2023-06-14T07:28:46;6.58;;;6.57;;
69837;SDS011;57135;51.992;4.476;2023-06-14T07:31:13;6.35;;;6.35;;
69837;SDS011;57135;51.992;4.476;2023-06-14T07:33:41;6.54;;;6.54;;
69837;SDS011;57135;51.992;4.476;2023-06-14T07:36:07;6.49;;;6.49;;
69837;SDS011;57135;51.992;4.476;2023-06-14T07:38:34;6.56;;;6.56;;
69837;SDS011;57135;51.992;4.476;2023-06-14T07:41:00;6.77;;;6.77;;
69837;SDS011;57135;51.992;4.476;2023-06-14T07:43:25;6.42;;;6.42;;
69837;SDS011;57135;51.992;4.476;2023-06-14T07:45:51;6.45;;;6.45;;
69837;SDS011;57135;51.992;4.476;2023-06-14T07:48:16;6.52;;;6.52;;
69837;SDS011;57135;51.992;4.476;2023-06-14T07:50:42;6.60;;;6.60;;
69837;SDS011;57135;51.992;4.476;2023-06-14T07:53:08;6.38;;;6.38;;
69837;SDS011;57135;51.992;4.476;2023-06-14T07:55:33;6.82;;;6.82;;
69837;SDS011;57135;51.992;4.476;2023-06-14T07:58:02;6.12;;;6.12;;
69837;SDS011;57135;51.992;4.476;2023-06-14T08:00:28;6.66;;;6.66;;
69837;SDS011;57135;51.992;4.476;2023-06-14T08:02:54;6.44;;;6.44;;
69837;SDS011;57135;51.992;4.476;2023-06-14T08:05:23;6.46;;;6.45;;
69837;SDS011;57135;51.992;4.476;2023-06-14T08:07:50;6.35;;;6.35;;
69837;SDS011;57135;51.992;4.476;2023-06-14T08:10:16;6.65;;;6.65;;
69837;SDS011;57135;51.992;4.476;2023-06-14T08:12:41;6.84;;;6.84;;
69837;SDS011;57135;51.992;4.476;2023-06-14T08:15:06;6.38;;;6.38;;
69837;SDS011;57135;51.992;4.476;2023-06-14T08:17:34;6.66;;;6.66;;
69837;SDS011;57135;51.992;4.476;2023-06-14T08:19:59;6.71;;;6.71;;
69837;SDS011;57135;51.992;4.476;2023-06-14T08:22:25;6.42;;;6.42;;
69837;SDS011;57135;51.992;4.476;2023-06-14T08:24:54;6.31;;;6.31;;
69837;SDS011;57135;51.992;4.476;2023-06-14T08:27:19;6.46;;;6.46;;
69837;SDS011;57135;51.992;4.476;2023-06-14T08:29:46;6.46;;;6.46;;
69837;SDS011;57135;51.992;4.476;2023-06-14T08:32:11;6.67;;;6.67;;
69837;SDS011;57135;51.992;4.476;2023-06-14T08:34:37;6.27;;;6.27;;
69837;SDS011;57135;51.992;4.476;2023-06-14T08:37:02;6.76;;;6.76;;
69837;SDS011;57135;51.992;4.476;2023-06-14T08:39:28;6.33;;;6.33;;
69837;SDS011;57135;51.992;4.476;2023-06-14T08:41:55;6.29;;;6.29;;
69837;SDS011;57135;51.992;4.476;2023-06-14T08:44:21;6.78;;;6.77;;
69837;SDS011;57135;51.992;4.476;2023-06-14T08:46:47;6.38;;;6.36;;
69837;SDS011;57135;51.992;4.476;2023-06-14T08:49:13;6.31;;;6.29;;
69837;SDS011;57135;51.992;4.476;2023-06-14T08:51:41;6.58;;;6.58;;
69837;SDS011;57135;51.992;4.476;2023-06-14T08:54:08;6.12;;;6.12;;
69837;SDS011;57135;51.992;4.476;2023-06-14T08:56:38;6.20;;;6.20;;
69837;SDS011;57135;51.992;4.476;2023-06-14T08:59:04;6.15;;;6.15;;
69837;SDS011;57135;51.992;4.476;2023-06-14T09:01:35;6.10;;;6.10;;
69837;SDS011;57135;51.992;4.476;2023-06-14T09:04:01;6.05;;;6.05;;
69837;SDS011;57135;51.992;4.476;2023-06-14T09:06:28;5.82;;;5.82;;
69837;SDS011;57135;51.992;4.476;2023-06-14T09:08:54;5.90;;;5.90;;
69837;SDS011;57135;51.992;4.476;2023-06-14T09:11:22;5.80;;;5.80;;
69837;SDS011;57135;51.992;4.476;2023-06-14T09:13:48;5.96;;;5.96;;
69837;SDS011;57135;51.992;4.476;2023-06-14T09:16:14;5.85;;;5.85;;
69837;SDS011;57135;51.992;4.476;2023-06-14T09:18:41;5.73;;;5.73;;
69837;SDS011;57135;51.992;4.476;2023-06-14T09:21:09;5.74;;;5.74;;
69837;SDS011;57135;51.992;4.476;2023-06-14T09:23:36;5.99;;;5.99;;
69837;SDS011;57135;51.992;4.476;2023-06-14T09:26:21;5.44;;;5.44;;
69837;SDS011;57135;51.992;4.476;2023-06-14T09:28:49;5.26;;;5.26;;
69837;SDS011;57135;51.992;4.476;2023-06-14T09:31:15;5.60;;;5.60;;
69837;SDS011;57135;51.992;4.476;2023-06-14T09:33:46;5.51;;;5.51;;
69837;SDS011;57135;51.992;4.476;2023-06-14T09:36:23;5.54;;;5.54;;
69837;SDS011;57135;51.992;4.476;2023-06-14T09:39:00;5.31;;;5.31;;
69837;SDS011;57135;51.992;4.476;2023-06-14T09:41:34;5.07;;;5.07;;
69837;SDS011;57135;51.992;4.476;2023-06-14T09:44:02;4.93;;;4.93;;
69837;SDS011;57135;51.992;4.476;2023-06-14T09:46:29;5.12;;;5.12;;
69837;SDS011;57135;51.992;4.476;2023-06-14T09:48:55;5.49;;;5.49;;
69837;SDS011;57135;51.992;4.476;2023-06-14T09:51:24;5.02;;;5.02;;
69837;SDS011;57135;51.992;4.476;2023-06-14T09:53:51;4.88;;;4.88;;
69837;SDS011;57135;51.992;4.476;2023-06-14T09:56:22;4.93;;;4.93;;
69837;SDS011;57135;51.992;4.476;2023-06-14T09:58:55;5.04;;;5.04;;
69837;SDS011;57135;51.992;4.476;2023-06-14T10:01:22;4.83;;;4.83;;
69837;SDS011;57135;51.992;4.476;2023-06-14T10:03:50;5.10;;;5.10;;
69837;SDS011;57135;51.992;4.476;2023-06-14T10:06:21;4.57;;;4.57;;
69837;SDS011;57135;51.992;4.476;2023-06-14T10:08:50;4.12;;;4.12;;
69837;SDS011;57135;51.992;4.476;2023-06-14T10:11:19;4.47;;;4.47;;
69837;SDS011;57135;51.992;4.476;2023-06-14T10:13:45;4.38;;;4.38;;
69837;SDS011;57135;51.992;4.476;2023-06-14T10:18:45;4.17;;;4.17;;
69837;SDS011;57135;51.992;4.476;2023-06-14T10:22:02;3.98;;;3.98;;
69837;SDS011;57135;51.992;4.476;2023-06-14T10:24:15;4.04;;;4.04;;
69837;SDS011;57135;51.992;4.476;2023-06-14T10:27:17;3.99;;;3.99;;
69837;SDS011;57135;51.992;4.476;2023-06-14T10:30:01;4.00;;;4.00;;
69837;SDS011;57135;51.992;4.476;2023-06-14T10:32:24;3.55;;;3.55;;
69837;SDS011;57135;51.992;4.476;2023-06-14T10:34:57;3.78;;;3.78;;
69837;SDS011;57135;51.992;4.476;2023-06-14T10:37:24;3.88;;;3.88;;
69837;SDS011;57135;51.992;4.476;2023-06-14T10:39:50;3.84;;;3.84;;
69837;SDS011;57135;51.992;4.476;2023-06-14T10:42:16;3.90;;;3.90;;
69837;SDS011;57135;51.992;4.476;2023-06-14T10:44:51;3.89;;;3.89;;
69837;SDS011;57135;51.992;4.476;2023-06-14T10:50:02;3.72;;;3.72;;
69837;SDS011;57135;51.992;4.476;2023-06-14T10:52:34;3.44;;;3.44;;
69837;SDS011;57135;51.992;4.476;2023-06-14T10:57:48;3.51;;;3.51;;
69837;SDS011;57135;51.992;4.476;2023-06-14T11:00:21;3.48;;;3.48;;
69837;SDS011;57135;51.992;4.476;2023-06-14T11:10:44;3.44;;;3.44;;
69837;SDS011;57135;51.992;4.476;2023-06-14T11:13:12;3.43;;;3.43;;
69837;SDS011;57135;51.992;4.476;2023-06-14T11:15:38;3.22;;;3.22;;
69837;SDS011;57135;51.992;4.476;2023-06-14T11:18:09;3.17;;;3.17;;
69837;SDS011;57135;51.992;4.476;2023-06-14T11:20:35;3.24;;;3.24;;
69837;SDS011;57135;51.992;4.476;2023-06-14T11:23:01;3.19;;;3.19;;
69837;SDS011;57135;51.992;4.476;2023-06-14T11:25:28;3.15;;;3.15;;
69837;SDS011;57135;51.992;4.476;2023-06-14T11:27:53;3.16;;;3.16;;
69837;SDS011;57135;51.992;4.476;2023-06-14T11:30:20;3.52;;;3.52;;
69837;SDS011;57135;51.992;4.476;2023-06-14T11:32:46;4.79;;;4.79;;
69837;SDS011;57135;51.992;4.476;2023-06-14T11:35:13;3.34;;;3.34;;
69837;SDS011;57135;51.992;4.476;2023-06-14T11:37:39;3.84;;;3.84;;
69837;SDS011;57135;51.992;4.476;2023-06-14T11:40:06;4.02;;;4.02;;
69837;SDS011;57135;51.992;4.476;2023-06-14T11:42:35;4.79;;;4.79;;
69837;SDS011;57135;51.992;4.476;2023-06-14T11:45:02;4.23;;;4.23;;
69837;SDS011;57135;51.992;4.476;2023-06-14T11:47:31;3.06;;;3.06;;
69837;SDS011;57135;51.992;4.476;2023-06-14T11:49:58;3.14;;;3.14;;
69837;SDS011;57135;51.992;4.476;2023-06-14T11:52:24;3.11;;;3.11;;
69837;SDS011;57135;51.992;4.476;2023-06-14T11:54:49;2.71;;;2.71;;
69837;SDS011;57135;51.992;4.476;2023-06-14T11:57:15;2.93;;;2.93;;
69837;SDS011;57135;51.992;4.476;2023-06-14T11:59:43;2.87;;;2.87;;
69837;SDS011;57135;51.992;4.476;2023-06-14T12:02:09;2.96;;;2.96;;
69837;SDS011;57135;51.992;4.476;2023-06-14T12:05:03;2.93;;;2.93;;
69837;SDS011;57135;51.992;4.476;2023-06-14T12:07:36;2.93;;;2.93;;
69837;SDS011;57135;51.992;4.476;2023-06-14T12:12:34;2.87;;;2.87;;
69837;SDS011;57135;51.992;4.476;2023-06-14T12:15:05;2.88;;;2.88;;
69837;SDS011;57135;51.992;4.476;2023-06-14T12:17:36;2.86;;;2.86;;
69837;SDS011;57135;51.992;4.476;2023-06-14T12:20:07;2.88;;;2.88;;
69837;SDS011;57135;51.992;4.476;2023-06-14T12:22:38;3.06;;;3.06;;
69837;SDS011;57135;51.992;4.476;2023-06-14T12:25:27;2.69;;;2.68;;
69837;SDS011;57135;51.992;4.476;2023-06-14T12:27:58;2.78;;;2.77;;
69837;SDS011;57135;51.992;4.476;2023-06-14T12:30:24;2.86;;;2.85;;
69837;SDS011;57135;51.992;4.476;2023-06-14T12:32:50;2.83;;;2.83;;
69837;SDS011;57135;51.992;4.476;2023-06-14T12:35:16;3.01;;;3.01;;
69837;SDS011;57135;51.992;4.476;2023-06-14T12:37:43;2.94;;;2.94;;
69837;SDS011;57135;51.992;4.476;2023-06-14T12:40:09;3.01;;;3.00;;
69837;SDS011;57135;51.992;4.476;2023-06-14T12:42:36;3.16;;;3.16;;
69837;SDS011;57135;51.992;4.476;2023-06-14T12:45:02;3.02;;;3.02;;
69837;SDS011;57135;51.992;4.476;2023-06-14T12:47:27;2.86;;;2.86;;
69837;SDS011;57135;51.992;4.476;2023-06-14T12:49:53;2.80;;;2.80;;
69837;SDS011;57135;51.992;4.476;2023-06-14T12:52:18;3.07;;;3.07;;
69837;SDS011;57135;51.992;4.476;2023-06-14T12:54:44;3.04;;;3.04;;
69837;SDS011;57135;51.992;4.476;2023-06-14T12:57:09;3.02;;;3.02;;
69837;SDS011;57135;51.992;4.476;2023-06-14T12:59:35;3.01;;;3.01;;
69837;SDS011;57135;51.992;4.476;2023-06-14T13:02:10;3.18;;;3.18;;
69837;SDS011;57135;51.992;4.476;2023-06-14T13:04:36;3.01;;;3.01;;
69837;SDS011;57135;51.992;4.476;2023-06-14T13:07:02;2.95;;;2.95;;
69837;SDS011;57135;51.992;4.476;2023-06-14T13:09:27;3.04;;;3.04;;
69837;SDS011;57135;51.992;4.476;2023-06-14T13:11:53;3.26;;;3.26;;
69837;SDS011;57135;51.992;4.476;2023-06-14T13:14:18;3.05;;;3.05;;
69837;SDS011;57135;51.992;4.476;2023-06-14T13:16:44;3.19;;;3.19;;
69837;SDS011;57135;51.992;4.476;2023-06-14T13:19:09;3.09;;;3.08;;
69837;SDS011;57135;51.992;4.476;2023-06-14T13:21:35;2.95;;;2.95;;
69837;SDS011;57135;51.992;4.476;2023-06-14T13:24:00;2.96;;;2.96;;
69837;SDS011;57135;51.992;4.476;2023-06-14T13:26:25;3.03;;;3.03;;
69837;SDS011;57135;51.992;4.476;2023-06-14T13:28:52;3.12;;;3.12;;
69837;SDS011;57135;51.992;4.476;2023-06-14T13:31:17;2.90;;;2.90;;
69837;SDS011;57135;51.992;4.476;2023-06-14T13:33:43;3.05;;;3.05;;
69837;SDS011;57135;51.992;4.476;2023-06-14T13:36:08;2.90;;;2.90;;
69837;SDS011;57135;51.992;4.476;2023-06-14T13:38:35;2.82;;;2.82;;
69837;SDS011;57135;51.992;4.476;2023-06-14T13:41:00;2.66;;;2.66;;
69837;SDS011;57135;51.992;4.476;2023-06-14T13:43:26;3.07;;;3.07;;
69837;SDS011;57135;51.992;4.476;2023-06-14T13:45:51;2.92;;;2.92;;
69837;SDS011;57135;51.992;4.476;2023-06-14T13:48:17;2.98;;;2.98;;
69837;SDS011;57135;51.992;4.476;2023-06-14T13:50:43;2.92;;;2.92;;
69837;SDS011;57135;51.992;4.476;2023-06-14T13:53:09;2.96;;;2.96;;
69837;SDS011;57135;51.992;4.476;2023-06-14T13:55:34;2.84;;;2.84;;
69837;SDS011;57135;51.992;4.476;2023-06-14T13:58:00;2.98;;;2.98;;
69837;SDS011;57135;51.992;4.476;2023-06-14T14:00:26;3.09;;;3.09;;
69837;SDS011;57135;51.992;4.476;2023-06-14T14:02:51;3.11;;;3.11;;
69837;SDS011;57135;51.992;4.476;2023-06-14T14:05:17;2.88;;;2.88;;
69837;SDS011;57135;51.992;4.476;2023-06-14T14:07:42;2.98;;;2.98;;
69837;SDS011;57135;51.992;4.476;2023-06-14T14:10:08;2.86;;;2.86;;
69837;SDS011;57135;51.992;4.476;2023-06-14T14:12:33;2.97;;;2.97;;
69837;SDS011;57135;51.992;4.476;2023-06-14T14:14:59;3.28;;;3.27;;
69837;SDS011;57135;51.992;4.476;2023-06-14T14:17:25;2.89;;;2.89;;
69837;SDS011;57135;51.992;4.476;2023-06-14T14:19:51;3.27;;;3.26;;
69837;SDS011;57135;51.992;4.476;2023-06-14T14:22:17;3.06;;;3.06;;
69837;SDS011;57135;51.992;4.476;2023-06-14T14:24:42;2.98;;;2.98;;
69837;SDS011;57135;51.992;4.476;2023-06-14T14:27:07;3.29;;;3.29;;
69837;SDS011;57135;51.992;4.476;2023-06-14T14:29:33;2.98;;;2.98;;
69837;SDS011;57135;51.992;4.476;2023-06-14T14:31:58;3.07;;;3.07;;
69837;SDS011;57135;51.992;4.476;2023-06-14T14:34:24;3.11;;;3.11;;
69837;SDS011;57135;51.992;4.476;2023-06-14T14:36:50;3.39;;;3.39;;
69837;SDS011;57135;51.992;4.476;2023-06-14T14:39:15;3.14;;;3.14;;
69837;SDS011;57135;51.992;4.476;2023-06-14T14:41:41;3.06;;;3.06;;
69837;SDS011;57135;51.992;4.476;2023-06-14T14:44:06;3.26;;;3.26;;
69837;SDS011;57135;51.992;4.476;2023-06-14T14:46:32;3.05;;;3.05;;
69837;SDS011;57135;51.992;4.476;2023-06-14T14:48:58;2.94;;;2.94;;
69837;SDS011;57135;51.992;4.476;2023-06-14T14:51:24;3.14;;;3.14;;
69837;SDS011;57135;51.992;4.476;2023-06-14T14:53:49;2.96;;;2.96;;
69837;SDS011;57135;51.992;4.476;2023-06-14T14:56:16;2.97;;;2.97;;
69837;SDS011;57135;51.992;4.476;2023-06-14T14:58:42;2.98;;;2.98;;
69837;SDS011;57135;51.992;4.476;2023-06-14T15:01:09;3.12;;;3.12;;
69837;SDS011;57135;51.992;4.476;2023-06-14T15:03:35;3.18;;;3.18;;
69837;SDS011;57135;51.992;4.476;2023-06-14T15:06:01;3.23;;;3.23;;
69837;SDS011;57135;51.992;4.476;2023-06-14T15:08:26;2.96;;;2.96;;